createdAt,value
2019-04-26T00:00:53.357Z,67.77
2019-04-26T00:03:33.885Z,67.45
2019-04-26T00:06:05.808Z,67.17
2019-04-26T00:08:36.528Z,67.07
2019-04-26T00:11:18.160Z,67.28
2019-04-26T00:14:06.344Z,67.23
2019-04-26T00:16:47.219Z,67.09
2019-04-26T00:19:17.887Z,67.32
2019-04-26T00:21:48.370Z,67.41
2019-04-26T00:24:19.388Z,67.28
2019-04-26T00:26:49.587Z,67.24
2019-04-26T00:29:19.579Z,67.06
2019-04-26T00:31:49.658Z,67.15
2019-04-26T00:34:19.693Z,67.43
2019-04-26T00:36:49.709Z,67.38
2019-04-26T00:39:20.328Z,67.47
2019-04-26T00:41:50.953Z,67.65
2019-04-26T00:44:20.960Z,67.87
2019-04-26T00:46:53.812Z,67.98
2019-04-26T00:49:23.895Z,67.71
2019-04-26T00:51:54.155Z,67.64
2019-04-26T00:54:26.153Z,67.59
2019-04-26T00:56:57.008Z,67.47
2019-04-26T00:59:28.404Z,67.38
2019-04-26T01:02:12.257Z,67.35
2019-04-26T01:04:42.432Z,67.31
2019-04-26T01:07:12.815Z,67.46
2019-04-26T01:09:42.914Z,67.89
2019-04-26T01:12:12.999Z,68.22
2019-04-26T01:14:43.087Z,68.06
2019-04-26T01:17:13.078Z,68.11
2019-04-26T01:19:45.420Z,68.21
2019-04-26T01:22:21.500Z,68.30
2019-04-26T01:24:53.898Z,68.72
2019-04-26T01:27:27.752Z,69.03
2019-04-26T01:30:00.939Z,69.58
2019-04-26T01:32:32.833Z,69.53
2019-04-26T01:35:02.947Z,69.60
2019-04-26T01:37:33.646Z,69.43
2019-04-26T01:40:08.215Z,69.08
2019-04-26T01:42:50.523Z,68.98
2019-04-26T01:45:27.931Z,69.10
2019-04-26T01:48:01.012Z,69.34
2019-04-26T01:50:33.989Z,69.35
2019-04-26T01:53:05.865Z,69.46
2019-04-26T01:55:35.980Z,69.48
2019-04-26T01:58:07.174Z,69.22
2019-04-26T02:00:47.652Z,69.16
2019-04-26T02:03:25.646Z,69.71
2019-04-26T02:05:56.033Z,69.42
2019-04-26T02:08:26.616Z,69.63
2019-04-26T02:10:57.211Z,69.66
2019-04-26T02:13:27.300Z,69.81
2019-04-26T02:15:57.313Z,69.72
2019-04-26T02:18:27.493Z,69.78
2019-04-26T02:21:10.136Z,69.83
2019-04-26T02:23:44.542Z,69.95
2019-04-26T02:26:34.640Z,69.98
2019-04-26T02:29:10.860Z,69.91
2019-04-26T02:31:43.579Z,70.18
2019-04-26T02:34:15.377Z,70.20
2019-04-26T02:36:56.997Z,70.54
2019-04-26T02:39:20.150Z,70.27
2019-04-26T02:41:53.109Z,70.24
2019-04-26T02:44:28.893Z,70.18
2019-04-26T02:47:26.679Z,70.15
2019-04-26T02:50:02.115Z,70.04
2019-04-26T02:52:46.675Z,70.30
2019-04-26T02:55:42.270Z,70.59
2019-04-26T02:58:11.663Z,70.64
2019-04-26T03:00:41.756Z,70.94
2019-04-26T03:03:13.330Z,70.96
2019-04-26T03:05:45.934Z,70.92
2019-04-26T03:08:18.946Z,70.92
2019-04-26T03:10:51.935Z,70.92
2019-04-26T03:13:28.959Z,70.71
2019-04-26T03:16:11.203Z,70.99
2019-04-26T03:18:45.792Z,71.09
2019-04-26T03:21:32.022Z,70.95
2019-04-26T03:24:13.923Z,70.98
2019-04-26T03:26:46.827Z,71.02
2019-04-26T03:29:25.828Z,71.20
2019-04-26T03:32:16.208Z,71.08
2019-04-26T03:34:53.931Z,71.33
2019-04-26T03:37:33.804Z,71.44
2019-04-26T03:40:44.593Z,71.31
2019-04-26T03:43:23.223Z,71.46
2019-04-26T03:46:02.272Z,71.58
2019-04-26T03:48:46.864Z,71.54
2019-04-26T03:51:22.633Z,71.62
2019-04-26T03:54:12.415Z,71.85
2019-04-26T03:56:52.904Z,71.96
2019-04-26T03:59:36.903Z,71.79
2019-04-26T04:02:21.808Z,70.42
2019-04-26T04:05:01.999Z,68.70
2019-04-26T04:07:39.345Z,68.31
2019-04-26T04:10:15.413Z,67.40
2019-04-26T04:12:54.330Z,68.87
2019-04-26T04:15:40.598Z,69.48
2019-04-26T04:18:15.571Z,69.75
2019-04-26T04:21:20.468Z,69.82
2019-04-26T04:24:05.164Z,69.95
2019-04-26T04:26:57.758Z,69.59
2019-04-26T04:29:54.650Z,69.33
2019-04-26T04:32:26.768Z,69.46
2019-04-26T04:34:59.825Z,68.97
2019-04-26T04:37:32.818Z,68.26
2019-04-26T04:40:13.339Z,67.82
2019-04-26T04:42:48.133Z,67.08
2019-04-26T04:45:42.462Z,66.58
2019-04-26T04:48:29.112Z,66.64
2019-04-26T04:51:21.344Z,65.93
2019-04-26T04:54:09.501Z,65.84
2019-04-26T04:56:57.715Z,65.38
2019-04-26T04:59:52.336Z,65.28
2019-04-26T05:02:51.066Z,64.68
2019-04-26T05:05:40.575Z,64.37
2019-04-26T05:08:24.957Z,64.35
2019-04-26T05:11:13.406Z,64.55
2019-04-26T05:13:58.315Z,63.95
2019-04-26T05:16:52.634Z,63.63
2019-04-26T05:19:31.468Z,63.54
2019-04-26T05:22:22.476Z,63.34
2019-04-26T05:25:40.272Z,62.79
2019-04-26T05:28:40.091Z,63.08
2019-04-26T05:31:17.552Z,63.28
2019-04-26T05:34:08.411Z,63.35
2019-04-26T05:37:01.034Z,63.59
2019-04-26T05:39:51.212Z,63.88
2019-04-26T05:42:51.724Z,63.86
2019-04-26T05:45:41.331Z,64.20
2019-04-26T05:48:24.750Z,64.21
2019-04-26T05:51:24.419Z,64.18
2019-04-26T05:54:18.356Z,63.69
2019-04-26T05:57:02.669Z,63.93
2019-04-26T05:59:44.797Z,63.65
2019-04-26T06:02:41.440Z,63.39
2019-04-26T06:05:29.396Z,63.48
2019-04-26T06:08:44.476Z,62.72
2019-04-26T06:11:19.075Z,62.10
2019-04-26T06:14:24.813Z,61.53
2019-04-26T06:17:08.402Z,61.03
2019-04-26T06:20:22.703Z,59.82
2019-04-26T06:23:11.921Z,59.31
2019-04-26T06:25:57.981Z,57.38
2019-04-26T06:28:47.837Z,57.06
2019-04-26T06:31:30.042Z,56.74
2019-04-26T06:34:06.022Z,55.76
2019-04-26T06:36:43.377Z,55.17
2019-04-26T06:39:20.571Z,55.02
2019-04-26T06:42:16.322Z,53.82
2019-04-26T06:44:54.889Z,52.81
2019-04-26T06:47:50.703Z,52.47
2019-04-26T06:50:36.784Z,52.02
2019-04-26T06:53:09.684Z,51.04
2019-04-26T06:55:47.019Z,49.91
2019-04-26T06:58:52.960Z,50.47
2019-04-26T07:01:42.814Z,49.10
2019-04-26T07:04:30.745Z,47.20
2019-04-26T07:07:24.372Z,47.02
2019-04-26T07:10:15.487Z,46.11
2019-04-26T07:12:49.971Z,45.55
2019-04-26T07:15:28.707Z,44.95
2019-04-26T07:18:21.296Z,44.88
2019-04-26T07:21:14.319Z,44.47
2019-04-26T07:23:54.783Z,43.67
2019-04-26T07:27:01.410Z,43.09
2019-04-26T07:29:46.653Z,43.19
2019-04-26T07:32:28.510Z,42.58
2019-04-26T07:35:17.866Z,42.13
2019-04-26T07:38:11.119Z,41.96
2019-04-26T07:41:21.779Z,42.33
2019-04-26T07:44:11.847Z,41.95
2019-04-26T07:46:53.485Z,42.25
2019-04-26T07:49:59.628Z,41.85
2019-04-26T07:52:32.584Z,40.59
2019-04-26T07:55:20.647Z,40.64
2019-04-26T07:58:11.064Z,40.55
2019-04-26T08:00:51.215Z,39.21
2019-04-26T08:03:31.611Z,39.50
2019-04-26T08:06:13.723Z,39.19
2019-04-26T08:08:52.455Z,38.88
2019-04-26T08:11:28.326Z,38.67
2019-04-26T08:14:10.792Z,38.69
2019-04-26T08:16:50.947Z,37.69
2019-04-26T08:19:25.488Z,38.13
2019-04-26T08:22:11.584Z,37.74
2019-04-26T08:24:30.984Z,37.74
2019-04-26T08:27:13.717Z,37.82
2019-04-26T08:29:41.944Z,36.82
2019-04-26T08:32:16.507Z,37.05
2019-04-26T08:34:49.651Z,37.00
2019-04-26T08:37:26.453Z,36.92
2019-04-26T08:39:58.067Z,36.86
2019-04-26T08:42:33.591Z,36.98
2019-04-26T08:45:24.300Z,37.43
2019-04-26T08:48:12.223Z,36.82
2019-04-26T08:50:53.838Z,36.07
2019-04-26T08:53:25.692Z,36.46
2019-04-26T08:55:57.935Z,35.08
2019-04-26T08:58:30.840Z,35.01
2019-04-26T09:01:08.202Z,35.41
2019-04-26T09:03:48.917Z,34.55
2019-04-26T09:06:23.341Z,35.21
2019-04-26T09:08:55.768Z,35.07
2019-04-26T09:11:33.439Z,34.57
2019-04-26T09:14:03.897Z,34.42
2019-04-26T09:16:33.991Z,35.36
2019-04-26T09:19:04.115Z,34.87
2019-04-26T09:21:41.623Z,34.46
2019-04-26T09:24:24.955Z,34.21
2019-04-26T09:26:58.656Z,34.61
2019-04-26T09:29:36.384Z,34.82
2019-04-26T09:32:11.117Z,34.98
2019-04-26T09:34:42.885Z,34.58
2019-04-26T09:37:13.172Z,34.88
2019-04-26T09:39:43.458Z,34.26
2019-04-26T09:42:15.204Z,34.56
2019-04-26T09:45:01.945Z,34.52
2019-04-26T09:47:49.995Z,34.44
2019-04-26T09:50:24.662Z,34.36
2019-04-26T09:52:58.209Z,34.41
2019-04-26T09:55:35.629Z,34.03
2019-04-26T09:58:01.352Z,34.02
2019-04-26T10:00:32.033Z,34.13
2019-04-26T10:03:05.482Z,34.16
2019-04-26T10:05:33.827Z,34.41
2019-04-26T10:08:04.125Z,33.95
2019-04-26T10:10:35.353Z,33.64
2019-04-26T10:13:07.575Z,33.35
2019-04-26T10:15:58.193Z,33.82
2019-04-26T10:18:27.314Z,33.48
2019-04-26T10:20:57.378Z,33.30
2019-04-26T10:23:27.477Z,33.02
2019-04-26T10:25:57.565Z,32.72
2019-04-26T10:28:27.570Z,33.28
2019-04-26T10:30:58.170Z,32.95
2019-04-26T10:33:28.276Z,32.60
2019-04-26T10:35:58.277Z,32.47
2019-04-26T10:38:28.306Z,32.59
2019-04-26T10:40:58.292Z,32.25
2019-04-26T10:43:29.453Z,31.96
2019-04-26T10:45:59.719Z,31.62
2019-04-26T10:48:29.718Z,31.25
2019-04-26T10:51:03.293Z,31.61
2019-04-26T10:53:33.062Z,30.50
2019-04-26T10:56:20.217Z,30.66
2019-04-26T10:58:53.015Z,30.42
2019-04-26T11:01:23.161Z,30.66
2019-04-26T11:03:53.463Z,30.46
2019-04-26T11:06:24.031Z,30.10
2019-04-26T11:08:56.719Z,30.21
2019-04-26T11:11:26.697Z,30.30
2019-04-26T11:13:57.571Z,30.85
2019-04-26T11:16:27.848Z,30.78
2019-04-26T11:19:01.113Z,30.09
2019-04-26T11:21:29.509Z,29.48
2019-04-26T11:24:00.765Z,29.50
2019-04-26T11:29:40.891Z,30.28
2019-04-26T11:32:10.967Z,30.25
2019-04-26T11:34:42.915Z,29.83
2019-04-26T11:37:13.366Z,29.65
2019-04-26T11:39:44.433Z,30.12
2019-04-26T11:42:14.478Z,30.06
2019-04-26T11:44:44.919Z,30.18
2019-04-26T11:47:14.989Z,30.23
2019-04-26T11:49:45.055Z,29.17
2019-04-26T11:52:15.031Z,29.41
2019-04-26T11:54:44.998Z,29.37
2019-04-26T11:57:14.971Z,28.26
2019-04-26T11:59:45.042Z,28.58
2019-04-26T12:02:16.257Z,29.13
2019-04-26T12:04:49.527Z,28.93
2019-04-26T12:07:21.619Z,29.02
2019-04-26T12:09:53.253Z,29.40
2019-04-26T12:12:23.321Z,28.71
2019-04-26T12:14:53.298Z,29.04
2019-04-26T12:17:26.881Z,29.27
2019-04-26T12:19:55.977Z,28.13
2019-04-26T12:22:25.945Z,28.20
2019-04-26T12:24:56.030Z,27.61
2019-04-26T12:27:26.584Z,27.12
2019-04-26T12:29:57.806Z,27.13
2019-04-26T12:32:27.774Z,26.93
2019-04-26T12:34:57.778Z,27.45
2019-04-26T12:37:27.847Z,27.96
2019-04-26T12:39:57.958Z,27.05
2019-04-26T12:42:27.926Z,26.89
2019-04-26T12:45:18.350Z,27.22
2019-04-26T12:47:53.033Z,26.59
2019-04-26T12:50:23.124Z,26.72
2019-04-26T12:52:55.749Z,26.38
2019-04-26T12:55:24.983Z,25.99
2019-04-26T12:57:54.976Z,25.52
2019-04-26T13:00:26.620Z,26.36
2019-04-26T13:02:56.902Z,26.69
2019-04-26T13:05:26.902Z,26.87
2019-04-26T13:07:57.006Z,25.25
2019-04-26T13:10:45.067Z,25.18
2019-04-26T13:13:25.799Z,25.78
2019-04-26T13:16:06.431Z,25.36
2019-04-26T13:18:36.408Z,25.49
2019-04-26T13:21:06.506Z,25.27
2019-04-26T13:23:36.478Z,25.92
2019-04-26T13:26:06.574Z,26.18
2019-04-26T13:28:36.555Z,26.04
2019-04-26T13:31:06.637Z,25.29
2019-04-26T13:33:36.710Z,25.89
2019-04-26T13:36:06.705Z,26.02
2019-04-26T13:38:39.523Z,26.15
2019-04-26T13:41:08.475Z,25.68
2019-04-26T13:43:38.542Z,25.43
2019-04-26T13:46:15.992Z,25.10
2019-04-26T13:49:05.911Z,25.47
2019-04-26T13:51:37.702Z,25.41
2019-04-26T13:54:07.772Z,25.17
2019-04-26T13:56:37.769Z,25.58
2019-04-26T13:59:07.736Z,25.65
2019-04-26T14:01:37.827Z,26.09
2019-04-26T14:04:09.026Z,26.17
2019-04-26T14:06:40.799Z,26.42
2019-04-26T14:09:12.686Z,26.65
2019-04-26T14:11:42.680Z,26.29
2019-04-26T14:14:12.645Z,26.37
2019-04-26T14:16:43.041Z,26.13
2019-04-26T14:19:15.429Z,26.58
2019-04-26T14:21:44.904Z,26.46
2019-04-26T14:24:23.979Z,25.73
2019-04-26T14:26:55.885Z,25.65
2019-04-26T14:29:28.447Z,25.81
2019-04-26T14:31:59.370Z,25.68
2019-04-26T14:34:29.433Z,25.98
2019-04-26T14:37:06.208Z,26.62
2019-04-26T14:39:43.285Z,26.48
2019-04-26T14:42:03.779Z,26.40
2019-04-26T14:44:33.957Z,25.81
2019-04-26T14:47:13.952Z,25.86
2019-04-26T14:49:39.228Z,26.00
2019-04-26T14:52:08.515Z,26.36
2019-04-26T14:54:41.344Z,25.73
2019-04-26T14:57:15.552Z,26.40
2019-04-26T14:59:49.593Z,25.97
2019-04-26T15:02:27.290Z,25.66
2019-04-26T15:05:09.087Z,25.79
2019-04-26T15:07:48.547Z,25.64
2019-04-26T15:10:11.028Z,25.57
2019-04-26T15:12:46.207Z,25.72
2019-04-26T15:15:11.979Z,25.65
2019-04-26T15:17:42.328Z,25.95
2019-04-26T15:20:16.714Z,26.51
2019-04-26T15:22:48.563Z,26.59
2019-04-26T15:25:19.000Z,26.26
2019-04-26T15:27:52.498Z,26.65
2019-04-26T15:30:23.921Z,26.73
2019-04-26T15:33:04.758Z,26.82
2019-04-26T15:35:36.768Z,26.72
2019-04-26T15:38:06.753Z,27.18
2019-04-26T15:40:44.325Z,26.82
2019-04-26T15:43:27.902Z,26.95
2019-04-26T15:46:08.156Z,26.87
2019-04-26T15:48:43.029Z,26.64
2019-04-26T15:51:14.698Z,26.65
2019-04-26T15:53:48.766Z,26.42
2019-04-26T15:56:19.308Z,26.14
2019-04-26T15:58:49.431Z,26.41
2019-04-26T16:01:19.397Z,26.71
2019-04-26T16:03:49.394Z,26.17
2019-04-26T16:06:19.363Z,26.36
2019-04-26T16:08:49.354Z,26.99
2019-04-26T16:11:21.365Z,27.34
2019-04-26T16:13:55.406Z,27.31
2019-04-26T16:16:27.965Z,27.52
2019-04-26T16:19:00.618Z,28.27
2019-04-26T16:21:32.483Z,28.43
2019-04-26T16:24:05.074Z,28.62
2019-04-26T16:26:37.908Z,28.84
2019-04-26T16:29:09.498Z,29.32
2019-04-26T16:31:47.148Z,29.27
2019-04-26T16:34:23.352Z,29.48
2019-04-26T16:36:53.573Z,29.69
2019-04-26T16:39:28.461Z,29.96
2019-04-26T16:41:59.256Z,29.93
2019-04-26T16:44:31.316Z,29.92
2019-04-26T16:47:03.658Z,30.42
2019-04-26T16:49:35.237Z,30.68
2019-04-26T16:52:10.840Z,30.94
2019-04-26T16:54:43.110Z,31.09
2019-04-26T16:57:13.232Z,31.30
2019-04-26T16:59:49.183Z,31.39
2019-04-26T17:02:16.208Z,31.47
2019-04-26T17:04:46.890Z,31.58
2019-04-26T17:07:22.015Z,31.31
2019-04-26T17:09:57.332Z,31.83
2019-04-26T17:12:20.370Z,31.94
2019-04-26T17:14:53.385Z,32.21
2019-04-26T17:17:27.344Z,32.31
2019-04-26T17:19:58.633Z,32.31
2019-04-26T17:22:44.355Z,32.55
2019-04-26T17:25:17.023Z,32.88
2019-04-26T17:27:47.242Z,32.72
2019-04-26T17:30:22.207Z,33.00
2019-04-26T17:32:55.308Z,33.13
2019-04-26T17:35:26.462Z,33.29
2019-04-26T17:38:01.404Z,33.56
2019-04-26T17:40:36.144Z,33.90
2019-04-26T17:43:05.301Z,34.34
2019-04-26T17:45:42.482Z,34.04
2019-04-26T17:48:12.841Z,33.97
2019-04-26T17:50:42.380Z,34.72
2019-04-26T17:53:26.105Z,35.37
2019-04-26T17:55:52.987Z,35.11
2019-04-26T17:58:27.739Z,35.04
2019-04-26T18:00:51.803Z,35.09
2019-04-26T18:03:23.177Z,34.69
2019-04-26T18:05:57.297Z,34.69
2019-04-26T18:08:41.422Z,34.92
2019-04-26T18:11:02.958Z,35.87
2019-04-26T18:13:34.580Z,36.22
2019-04-26T18:16:05.923Z,36.27
2019-04-26T18:18:53.663Z,36.02
2019-04-26T18:21:37.183Z,36.53
2019-04-26T18:24:08.728Z,36.96
2019-04-26T18:26:39.500Z,37.00
2019-04-26T18:29:10.244Z,37.97
2019-04-26T18:31:41.106Z,38.44
2019-04-26T18:34:12.878Z,40.16
2019-04-26T18:36:44.496Z,38.89
2019-04-26T18:39:18.025Z,39.93
2019-04-26T18:41:48.646Z,39.00
2019-04-26T18:44:20.018Z,39.53
2019-04-26T18:47:04.477Z,40.84
2019-04-26T18:49:36.320Z,41.77
2019-04-26T18:52:08.859Z,41.47
2019-04-26T18:54:43.665Z,41.60
2019-04-26T18:57:17.161Z,42.11
2019-04-26T18:59:51.051Z,42.15
2019-04-26T19:02:20.106Z,42.32
2019-04-26T19:04:50.211Z,43.23
2019-04-26T19:07:31.488Z,43.26
2019-04-26T19:10:02.864Z,43.48
2019-04-26T19:12:26.994Z,43.96
2019-04-26T19:15:03.122Z,44.22
2019-04-26T19:17:36.509Z,43.68
2019-04-26T19:20:24.926Z,44.78
2019-04-26T19:22:56.507Z,44.76
2019-04-26T19:25:30.033Z,44.23
2019-04-26T19:28:03.323Z,45.18
2019-04-26T19:30:30.702Z,45.73
2019-04-26T19:33:02.201Z,44.72
2019-04-26T19:35:33.687Z,44.72
2019-04-26T19:38:07.393Z,43.75
2019-04-26T19:40:39.377Z,44.10
2019-04-26T19:43:09.510Z,43.32
2019-04-26T19:45:45.855Z,43.72
2019-04-26T19:48:31.504Z,44.96
2019-04-26T19:51:19.109Z,43.35
2019-04-26T19:53:54.144Z,43.75
2019-04-26T19:56:27.633Z,45.35
2019-04-26T19:58:58.750Z,45.37
2019-04-26T20:01:30.493Z,45.85
2019-04-26T20:04:02.636Z,46.36
2019-04-26T20:06:35.355Z,47.26
2019-04-26T20:09:07.813Z,46.61
2019-04-26T20:11:39.569Z,46.60
2019-04-26T20:14:12.366Z,46.46
2019-04-26T20:16:44.026Z,46.62
2019-04-26T20:19:17.632Z,47.05
2019-04-26T20:21:49.760Z,47.14
2019-04-26T20:24:21.092Z,47.37
2019-04-26T20:26:53.466Z,47.16
2019-04-26T20:29:24.752Z,47.70
2019-04-26T20:31:56.728Z,48.57
2019-04-26T20:34:27.070Z,49.26
2019-04-26T20:36:58.895Z,47.62
2019-04-26T20:39:31.698Z,47.40
2019-04-26T20:42:04.052Z,48.68
2019-04-26T20:44:50.468Z,48.55
2019-04-26T20:47:11.581Z,46.92
2019-04-26T20:49:49.374Z,47.62
2019-04-26T20:52:16.585Z,47.48
2019-04-26T20:54:46.612Z,47.67
2019-04-26T20:57:18.531Z,47.65
2019-04-26T20:59:52.075Z,47.90
2019-04-26T21:02:24.722Z,47.64
2019-04-26T21:04:55.496Z,47.22
2019-04-26T21:07:25.490Z,46.48
2019-04-26T21:09:55.597Z,46.63
2019-04-26T21:12:25.577Z,46.73
2019-04-26T21:14:56.632Z,46.56
2019-04-26T21:17:27.931Z,45.70
2019-04-26T21:19:58.621Z,46.03
2019-04-26T21:22:28.980Z,46.65
2019-04-26T21:25:04.692Z,46.64
2019-04-26T21:27:36.650Z,45.92
2019-04-26T21:30:21.953Z,45.85
2019-04-26T21:32:59.183Z,46.19
2019-04-26T21:35:39.023Z,46.23
2019-04-26T21:38:29.753Z,46.70
2019-04-26T21:41:04.358Z,46.38
2019-04-26T21:43:34.832Z,46.54
2019-04-26T21:46:09.813Z,47.13
2019-04-26T21:48:37.361Z,48.32
2019-04-26T21:51:08.465Z,47.71
2019-04-26T21:53:41.506Z,45.97
2019-04-26T21:56:11.557Z,45.83
2019-04-26T21:58:43.642Z,47.01
2019-04-26T22:01:18.971Z,46.48
2019-04-26T22:03:54.327Z,46.73
2019-04-26T22:06:26.813Z,47.16
2019-04-26T22:09:02.864Z,47.11
2019-04-26T22:11:35.224Z,47.24
2019-04-26T22:14:06.969Z,47.00
2019-04-26T22:16:41.386Z,47.06
2019-04-26T22:19:21.570Z,47.33
2019-04-26T22:21:52.824Z,47.08
2019-04-26T22:24:40.010Z,46.99
2019-04-26T22:27:10.106Z,47.42
2019-04-26T22:29:40.479Z,47.91
2019-04-26T22:32:15.107Z,47.84
2019-04-26T22:34:46.177Z,47.87
2019-04-26T22:37:29.165Z,48.92
2019-04-26T22:39:49.139Z,49.57
2019-04-26T22:42:19.845Z,49.78
2019-04-26T22:44:51.497Z,49.64
2019-04-26T22:47:33.921Z,49.51
2019-04-26T22:50:07.926Z,48.86
2019-04-26T22:52:38.040Z,48.84
2019-04-26T22:55:08.109Z,48.89
2019-04-26T22:57:38.204Z,49.96
2019-04-26T23:00:08.569Z,50.45
2019-04-26T23:02:38.682Z,50.55
2019-04-26T23:05:10.019Z,50.64
2019-04-26T23:07:40.230Z,50.74
2019-04-26T23:10:13.308Z,50.80
2019-04-26T23:12:45.169Z,50.84
2019-04-26T23:15:30.226Z,51.10
2019-04-26T23:18:17.002Z,51.07
2019-04-26T23:20:48.648Z,51.39
2019-04-26T23:23:18.870Z,51.79
2019-04-26T23:25:48.937Z,52.00
2019-04-26T23:28:19.044Z,52.21
2019-04-26T23:30:49.145Z,52.69
2019-04-26T23:33:19.356Z,53.45
2019-04-26T23:35:49.434Z,54.14
2019-04-26T23:38:19.632Z,54.42
2019-04-26T23:40:49.834Z,55.66
2019-04-26T23:43:22.522Z,56.00
2019-04-26T23:45:53.037Z,57.24
2019-04-26T23:48:23.211Z,57.79
2019-04-26T23:50:53.851Z,58.25
2019-04-26T23:53:24.343Z,59.03
2019-04-26T23:55:54.436Z,59.70
2019-04-26T23:58:24.565Z,60.35
